M/V Raymond M. — WDC4224 — position and weather

sailwx.info

Track history (hours):
 
Tides and Currents Weather Stations Pressure Air Temp Water Temp Dewpoint Dewpoint Depression Visibility Wind Speed Wind Dir Waves Ship Positions

M/V Raymond M.

Owner: RM Leasing, Clute, TX. More information available from US FCC via Universal Licensing System and Coast Guard Vessel Documentation Center.

Last reported at 2017-Apr-26 12:25 UTC. Time now 2017-May-01 02:29 UTC.
Position N 29°35' W 092°18'.

; draft 2.2 m.

MMSI: 367021170.

Date/timePositionNaut miles runAvg speedWind from/ knotsBaromVisibWave heightAir tempDewpointWater temp
2017-Apr-26 12:25N 29°35' W 092°18'410.1
2017-Apr-26 12:01N 29°39' W 092°16'510.6
2017-Apr-26 11:31N 29°44' W 092°14'4 7.3
2017-Apr-26 11:01N 29°47' W 092°11'0 0.0
2017-Apr-26 10:31N 29°47' W 092°11'0 0.0
2017-Apr-26 10:01N 29°47' W 092°11'0 0.0
2017-Apr-26 09:31N 29°47' W 092°11'0 0.0
2017-Apr-26 09:00N 29°47' W 092°11'0 0.0
2017-Apr-26 08:31N 29°47' W 092°11'0 0.0
2017-Apr-26 08:01N 29°47' W 092°11'0 0.0
2017-Apr-26 07:31N 29°47' W 092°11'0 0.1
2017-Apr-26 07:00N 29°47' W 092°11'0 0.1
2017-Apr-26 05:47N 29°47' W 092°11'0 0.0
2017-Apr-26 05:30N 29°47' W 092°11'0 0.0
2017-Apr-26 05:00N 29°47' W 092°11'0 0.0
2017-Apr-26 04:30N 29°47' W 092°11'0 0.0
2017-Apr-26 01:48N 29°47' W 092°11'0 0.5
2017-Apr-26 01:30N 29°47' W 092°11'0 0.0
2017-Apr-26 00:59N 29°47' W 092°11'0 0.0
2017-Apr-26 00:30N 29°47' W 092°11'0 0.0
2017-Apr-26 00:00N 29°47' W 092°11'0 0.3
2017-Apr-25 23:30N 29°47' W 092°11'0 0.0
2017-Apr-25 22:48N 29°47' W 092°11'0 1.3
2017-Apr-25 22:30N 29°47' W 092°11'4 9.0
2017-Apr-25 22:00N 29°44' W 092°15'510.5
2017-Apr-25 21:30N 29°39' W 092°16'5 9.9
2017-Apr-25 21:00N 29°34' W 092°18'56 1.4
2017-Apr-24 04:52N 29°49' W 093°20'0 0.1
2017-Apr-24 04:25N 29°49' W 093°20'0 0.0
2017-Apr-24 02:54N 29°49' W 093°20'0 0.0
2017-Apr-22 22:25N 29°49' W 093°20'0 0.0
2017-Apr-22 02:41N 29°49' W 093°20'0 0.0
2017-Apr-22 01:37N 29°49' W 093°20'0 0.0
2017-Apr-21 03:55N 29°49' W 093°20'0 0.2
2017-Apr-21 03:30N 29°49' W 093°20'0 0.0
2017-Apr-21 03:00N 29°49' W 093°20'56 2.0
2017-Apr-19 22:33N 29°35' W 092°18'011.7
2017-Apr-19 22:30N 29°36' W 092°18'611.5
2017-Apr-19 22:00N 29°41' W 092°15'510.8
2017-Apr-19 21:30N 29°46' W 092°12'1 2.7
2017-Apr-19 21:00N 29°47' W 092°11'0 0.1
2017-Apr-19 18:20N 29°47' W 092°11'0 0.4
2017-Apr-19 18:00N 29°47' W 092°11'0 0.0
2017-Apr-19 17:30N 29°47' W 092°11'0 0.0
2017-Apr-19 17:00N 29°47' W 092°11'0 0.7
2017-Apr-19 16:30N 29°47' W 092°11'0 0.7
2017-Apr-19 16:00N 29°47' W 092°11'0 0.0
2017-Apr-19 15:30N 29°47' W 092°11'0 0.0
2017-Apr-19 15:00N 29°47' W 092°11'0 0.0
2017-Apr-19 14:30N 29°47' W 092°11'0 0.0
2017-Apr-19 13:30N 29°47' W 092°11'0 0.0
2017-Apr-19 13:00N 29°47' W 092°11'0 0.0
2017-Apr-19 12:30N 29°47' W 092°11'0 0.0
2017-Apr-19 12:00N 29°47' W 092°11'0 0.3
2017-Apr-19 11:30N 29°47' W 092°11'0 0.0
2017-Apr-19 08:13N 29°47' W 092°11'0 0.0
2017-Apr-19 08:01N 29°47' W 092°11'0 0.0
2017-Apr-19 07:30N 29°47' W 092°11'0 0.0
2017-Apr-19 07:01N 29°47' W 092°11'0 0.0
2017-Apr-19 06:30N 29°47' W 092°11'0 0.0
2017-Apr-19 06:00N 29°47' W 092°11'0 0.0
2017-Apr-19 05:31N 29°47' W 092°11'0 0.0
2017-Apr-19 05:00N 29°47' W 092°11'0 0.0
2017-Apr-19 04:30N 29°47' W 092°11'0 0.0
2017-Apr-19 04:01N 29°47' W 092°11'0 0.0
2017-Apr-19 03:31N 29°47' W 092°11'0 0.0
2017-Apr-19 03:01N 29°47' W 092°11'0 0.0
2017-Apr-19 02:31N 29°47' W 092°11'0 0.0
2017-Apr-19 02:01N 29°47' W 092°11'0 0.0
2017-Apr-19 01:31N 29°47' W 092°11'0 0.0
2017-Apr-19 01:00N 29°47' W 092°11'0 0.0
2017-Apr-19 00:31N 29°47' W 092°11'0 0.0
2017-Apr-19 00:01N 29°47' W 092°11'0 0.0
2017-Apr-18 23:30N 29°47' W 092°11'0 0.0
2017-Apr-18 23:01N 29°47' W 092°11'0 0.0
2017-Apr-18 22:31N 29°47' W 092°11'0 0.0
2017-Apr-18 22:01N 29°47' W 092°11'0 0.0
2017-Apr-18 21:31N 29°47' W 092°11'0 0.0
2017-Apr-18 21:00N 29°47' W 092°11'0 0.0
2017-Apr-18 20:30N 29°47' W 092°11'0 0.0
2017-Apr-18 20:01N 29°47' W 092°11'0 0.0
2017-Apr-18 19:31N 29°47' W 092°11'0 0.0
2017-Apr-18 19:00N 29°47' W 092°11'0 0.0
2017-Apr-18 18:31N 29°47' W 092°11'0 0.0
2017-Apr-18 18:01N 29°47' W 092°11'0 0.0
2017-Apr-18 17:30N 29°47' W 092°11'0 0.0
2017-Apr-18 17:00N 29°47' W 092°11'0 0.0
2017-Apr-18 16:31N 29°47' W 092°11'0 0.0
2017-Apr-18 16:01N 29°47' W 092°11'0 0.0
2017-Apr-18 15:31N 29°47' W 092°11'0 0.0
2017-Apr-18 15:00N 29°47' W 092°11'0 0.0
2017-Apr-18 14:30N 29°47' W 092°11'0 0.0
2017-Apr-18 13:30N 29°47' W 092°11'0 0.0
2017-Apr-18 13:01N 29°47' W 092°11'0 0.0
2017-Apr-18 12:31N 29°47' W 092°11'0 0.0
2017-Apr-18 12:00N 29°47' W 092°11'0 0.0
2017-Apr-18 11:30N 29°47' W 092°11'0 0.0
2017-Apr-18 11:01N 29°47' W 092°11'0 0.0
2017-Apr-18 10:30N 29°47' W 092°11'0 0.0
2017-Apr-18 10:01N 29°47' W 092°11'0 0.0
2017-Apr-18 09:30N 29°47' W 092°11'0 0.0
2017-Apr-18 08:59N 29°47' W 092°11'0 0.0
2017-Apr-18 08:31N 29°47' W 092°11'0 0.0
2017-Apr-18 08:01N 29°47' W 092°11'0 0.0
2017-Apr-18 07:31N 29°47' W 092°11'0 0.0
2017-Apr-18 07:01N 29°47' W 092°11'0 0.0
2017-Apr-18 06:30N 29°47' W 092°11'0 0.0
2017-Apr-18 06:01N 29°47' W 092°11'0 0.0
2017-Apr-18 05:31N 29°47' W 092°11'0 0.0
2017-Apr-18 05:00N 29°47' W 092°11'0 0.0
2017-Apr-18 04:31N 29°47' W 092°11'0 0.0
2017-Apr-18 04:01N 29°47' W 092°11'0 0.0
2017-Apr-18 03:31N 29°47' W 092°11'0 0.0
2017-Apr-18 03:01N 29°47' W 092°11'0 0.0
2017-Apr-18 02:30N 29°47' W 092°11'0 0.0
2017-Apr-18 02:00N 29°47' W 092°11'0 0.0
2017-Apr-18 01:30N 29°47' W 092°11'0 0.0
2017-Apr-18 01:01N 29°47' W 092°11'0 0.0
2017-Apr-18 00:30N 29°47' W 092°11'0 0.0
2017-Apr-18 00:00N 29°47' W 092°11'0 0.0
2017-Apr-17 23:31N 29°47' W 092°11'0 0.0
2017-Apr-17 23:01N 29°47' W 092°11'0 0.0
2017-Apr-17 22:31N 29°47' W 092°11'0 0.0
2017-Apr-17 22:01N 29°47' W 092°11'0 0.0
2017-Apr-17 21:31N 29°47' W 092°11'0 0.0
2017-Apr-17 21:01N 29°47' W 092°11'0 0.0
2017-Apr-17 20:30N 29°47' W 092°11'0 0.0
2017-Apr-17 20:01N 29°47' W 092°11'0 0.0
2017-Apr-17 19:31N 29°47' W 092°11'0 0.0
2017-Apr-17 19:00N 29°47' W 092°11'0 0.0
2017-Apr-17 18:31N 29°47' W 092°11'0 0.0
2017-Apr-17 18:00N 29°47' W 092°11'0 0.0
2017-Apr-17 17:30N 29°47' W 092°11'0 0.0
2017-Apr-17 17:01N 29°47' W 092°11'0 0.0
2017-Apr-17 16:30N 29°47' W 092°11'0 0.0
2017-Apr-17 16:01N 29°47' W 092°11'0 0.0
2017-Apr-17 15:31N 29°47' W 092°11'0 0.0
2017-Apr-17 15:00N 29°47' W 092°11'0 0.0
2017-Apr-17 14:30N 29°47' W 092°11'0 0.0
2017-Apr-17 13:31N 29°47' W 092°11'0 0.0
2017-Apr-17 13:00N 29°47' W 092°11'0 0.0
2017-Apr-17 12:31N 29°47' W 092°11'0 0.0
2017-Apr-17 12:01N 29°47' W 092°11'0 0.0
2017-Apr-17 11:30N 29°47' W 092°11'0 0.0
2017-Apr-17 11:00N 29°47' W 092°11'0 0.0
2017-Apr-17 10:31N 29°47' W 092°11'0 0.0
2017-Apr-17 10:01N 29°47' W 092°11'0 0.0
2017-Apr-17 09:31N 29°47' W 092°11'0 0.0
2017-Apr-17 09:00N 29°47' W 092°11'0 0.0
2017-Apr-17 08:31N 29°47' W 092°11'0 0.0
2017-Apr-17 08:00N 29°47' W 092°11'0 0.0
2017-Apr-17 07:31N 29°47' W 092°11'0 0.0
2017-Apr-17 07:01N 29°47' W 092°11'0 0.0
2017-Apr-17 06:30N 29°47' W 092°11'0 0.0
2017-Apr-17 06:01N 29°47' W 092°11'0 0.0
2017-Apr-16 18:18N 29°47' W 092°11'1 3.1
2017-Apr-16 18:00N 29°46' W 092°11'5 9.7
2017-Apr-16 17:30N 29°42' W 092°15'510.1
2017-Apr-16 17:00N 29°37' W 092°16'  
Track history (hours):
 
Tides and Currents Weather Stations Pressure Air Temp Water Temp Dewpoint Dewpoint Depression Visibility Wind Speed Wind Dir Waves Ship Positions

M/V Raymond M.

Owner: RM Leasing, Clute, TX. More information available from US FCC via Universal Licensing System and Coast Guard Vessel Documentation Center.

Last reported at 2017-Apr-26 12:25 UTC. Time now 2017-May-01 02:29 UTC.
Position N 29°35' W 092°18'.

; draft 2.2 m.

MMSI: 367021170.

Date/timePositionNaut miles runAvg speedWind from/ knotsBaromVisibWave heightAir tempDewpointWater temp
2017-Apr-26 12:25N 29°35' W 092°18'410.1
2017-Apr-26 12:01N 29°39' W 092°16'510.6
2017-Apr-26 11:31N 29°44' W 092°14'4 7.3
2017-Apr-26 11:01N 29°47' W 092°11'0 0.0
2017-Apr-26 10:31N 29°47' W 092°11'0 0.0
2017-Apr-26 10:01N 29°47' W 092°11'0 0.0
2017-Apr-26 09:31N 29°47' W 092°11'0 0.0
2017-Apr-26 09:00N 29°47' W 092°11'0 0.0
2017-Apr-26 08:31N 29°47' W 092°11'0 0.0
2017-Apr-26 08:01N 29°47' W 092°11'0 0.0
2017-Apr-26 07:31N 29°47' W 092°11'0 0.1
2017-Apr-26 07:00N 29°47' W 092°11'0 0.1
2017-Apr-26 05:47N 29°47' W 092°11'0 0.0
2017-Apr-26 05:30N 29°47' W 092°11'0 0.0
2017-Apr-26 05:00N 29°47' W 092°11'0 0.0
2017-Apr-26 04:30N 29°47' W 092°11'0 0.0
2017-Apr-26 01:48N 29°47' W 092°11'0 0.5
2017-Apr-26 01:30N 29°47' W 092°11'0 0.0
2017-Apr-26 00:59N 29°47' W 092°11'0 0.0
2017-Apr-26 00:30N 29°47' W 092°11'0 0.0
2017-Apr-26 00:00N 29°47' W 092°11'0 0.3
2017-Apr-25 23:30N 29°47' W 092°11'0 0.0
2017-Apr-25 22:48N 29°47' W 092°11'0 1.3
2017-Apr-25 22:30N 29°47' W 092°11'4 9.0
2017-Apr-25 22:00N 29°44' W 092°15'510.5
2017-Apr-25 21:30N 29°39' W 092°16'5 9.9
2017-Apr-25 21:00N 29°34' W 092°18'56 1.4
2017-Apr-24 04:52N 29°49' W 093°20'0 0.1
2017-Apr-24 04:25N 29°49' W 093°20'0 0.0
2017-Apr-24 02:54N 29°49' W 093°20'0 0.0
2017-Apr-22 22:25N 29°49' W 093°20'0 0.0
2017-Apr-22 02:41N 29°49' W 093°20'0 0.0
2017-Apr-22 01:37N 29°49' W 093°20'0 0.0
2017-Apr-21 03:55N 29°49' W 093°20'0 0.2
2017-Apr-21 03:30N 29°49' W 093°20'0 0.0
2017-Apr-21 03:00N 29°49' W 093°20'56 2.0
2017-Apr-19 22:33N 29°35' W 092°18'011.7
2017-Apr-19 22:30N 29°36' W 092°18'611.5
2017-Apr-19 22:00N 29°41' W 092°15'510.8
2017-Apr-19 21:30N 29°46' W 092°12'1 2.7
2017-Apr-19 21:00N 29°47' W 092°11'0 0.1
2017-Apr-19 18:20N 29°47' W 092°11'0 0.4
2017-Apr-19 18:00N 29°47' W 092°11'0 0.0
2017-Apr-19 17:30N 29°47' W 092°11'0 0.0
2017-Apr-19 17:00N 29°47' W 092°11'0 0.7
2017-Apr-19 16:30N 29°47' W 092°11'0 0.7
2017-Apr-19 16:00N 29°47' W 092°11'0 0.0
2017-Apr-19 15:30N 29°47' W 092°11'0 0.0
2017-Apr-19 15:00N 29°47' W 092°11'0 0.0
2017-Apr-19 14:30N 29°47' W 092°11'0 0.0
2017-Apr-19 13:30N 29°47' W 092°11'0 0.0
2017-Apr-19 13:00N 29°47' W 092°11'0 0.0
2017-Apr-19 12:30N 29°47' W 092°11'0 0.0
2017-Apr-19 12:00N 29°47' W 092°11'0 0.3
2017-Apr-19 11:30N 29°47' W 092°11'0 0.0
2017-Apr-19 08:13N 29°47' W 092°11'0 0.0
2017-Apr-19 08:01N 29°47' W 092°11'0 0.0
2017-Apr-19 07:30N 29°47' W 092°11'0 0.0
2017-Apr-19 07:01N 29°47' W 092°11'0 0.0
2017-Apr-19 06:30N 29°47' W 092°11'0 0.0
2017-Apr-19 06:00N 29°47' W 092°11'0 0.0
2017-Apr-19 05:31N 29°47' W 092°11'0 0.0
2017-Apr-19 05:00N 29°47' W 092°11'0 0.0
2017-Apr-19 04:30N 29°47' W 092°11'0 0.0
2017-Apr-19 04:01N 29°47' W 092°11'0 0.0
2017-Apr-19 03:31N 29°47' W 092°11'0 0.0
2017-Apr-19 03:01N 29°47' W 092°11'0 0.0
2017-Apr-19 02:31N 29°47' W 092°11'0 0.0
2017-Apr-19 02:01N 29°47' W 092°11'0 0.0
2017-Apr-19 01:31N 29°47' W 092°11'0 0.0
2017-Apr-19 01:00N 29°47' W 092°11'0 0.0
2017-Apr-19 00:31N 29°47' W 092°11'0 0.0
2017-Apr-19 00:01N 29°47' W 092°11'0 0.0
2017-Apr-18 23:30N 29°47' W 092°11'0 0.0
2017-Apr-18 23:01N 29°47' W 092°11'0 0.0
2017-Apr-18 22:31N 29°47' W 092°11'0 0.0
2017-Apr-18 22:01N 29°47' W 092°11'0 0.0
2017-Apr-18 21:31N 29°47' W 092°11'0 0.0
2017-Apr-18 21:00N 29°47' W 092°11'0 0.0
2017-Apr-18 20:30N 29°47' W 092°11'0 0.0
2017-Apr-18 20:01N 29°47' W 092°11'0 0.0
2017-Apr-18 19:31N 29°47' W 092°11'0 0.0
2017-Apr-18 19:00N 29°47' W 092°11'0 0.0
2017-Apr-18 18:31N 29°47' W 092°11'0 0.0
2017-Apr-18 18:01N 29°47' W 092°11'0 0.0
2017-Apr-18 17:30N 29°47' W 092°11'0 0.0
2017-Apr-18 17:00N 29°47' W 092°11'0 0.0
2017-Apr-18 16:31N 29°47' W 092°11'0 0.0
2017-Apr-18 16:01N 29°47' W 092°11'0 0.0
2017-Apr-18 15:31N 29°47' W 092°11'0 0.0
2017-Apr-18 15:00N 29°47' W 092°11'0 0.0
2017-Apr-18 14:30N 29°47' W 092°11'0 0.0
2017-Apr-18 13:30N 29°47' W 092°11'0 0.0
2017-Apr-18 13:01N 29°47' W 092°11'0 0.0
2017-Apr-18 12:31N 29°47' W 092°11'0 0.0
2017-Apr-18 12:00N 29°47' W 092°11'0 0.0
2017-Apr-18 11:30N 29°47' W 092°11'0 0.0
2017-Apr-18 11:01N 29°47' W 092°11'0 0.0
2017-Apr-18 10:30N 29°47' W 092°11'0 0.0
2017-Apr-18 10:01N 29°47' W 092°11'0 0.0
2017-Apr-18 09:30N 29°47' W 092°11'0 0.0
2017-Apr-18 08:59N 29°47' W 092°11'0 0.0
2017-Apr-18 08:31N 29°47' W 092°11'0 0.0
2017-Apr-18 08:01N 29°47' W 092°11'0 0.0
2017-Apr-18 07:31N 29°47' W 092°11'0 0.0
2017-Apr-18 07:01N 29°47' W 092°11'0 0.0
2017-Apr-18 06:30N 29°47' W 092°11'0 0.0
2017-Apr-18 06:01N 29°47' W 092°11'0 0.0
2017-Apr-18 05:31N 29°47' W 092°11'0 0.0
2017-Apr-18 05:00N 29°47' W 092°11'0 0.0
2017-Apr-18 04:31N 29°47' W 092°11'0 0.0
2017-Apr-18 04:01N 29°47' W 092°11'0 0.0
2017-Apr-18 03:31N 29°47' W 092°11'0 0.0
2017-Apr-18 03:01N 29°47' W 092°11'0 0.0
2017-Apr-18 02:30N 29°47' W 092°11'0 0.0
2017-Apr-18 02:00N 29°47' W 092°11'0 0.0
2017-Apr-18 01:30N 29°47' W 092°11'0 0.0
2017-Apr-18 01:01N 29°47' W 092°11'0 0.0
2017-Apr-18 00:30N 29°47' W 092°11'0 0.0
2017-Apr-18 00:00N 29°47' W 092°11'0 0.0
2017-Apr-17 23:31N 29°47' W 092°11'0 0.0
2017-Apr-17 23:01N 29°47' W 092°11'0 0.0
2017-Apr-17 22:31N 29°47' W 092°11'0 0.0
2017-Apr-17 22:01N 29°47' W 092°11'0 0.0
2017-Apr-17 21:31N 29°47' W 092°11'0 0.0
2017-Apr-17 21:01N 29°47' W 092°11'0 0.0
2017-Apr-17 20:30N 29°47' W 092°11'0 0.0
2017-Apr-17 20:01N 29°47' W 092°11'0 0.0
2017-Apr-17 19:31N 29°47' W 092°11'0 0.0
2017-Apr-17 19:00N 29°47' W 092°11'0 0.0
2017-Apr-17 18:31N 29°47' W 092°11'0 0.0
2017-Apr-17 18:00N 29°47' W 092°11'0 0.0
2017-Apr-17 17:30N 29°47' W 092°11'0 0.0
2017-Apr-17 17:01N 29°47' W 092°11'0 0.0
2017-Apr-17 16:30N 29°47' W 092°11'0 0.0
2017-Apr-17 16:01N 29°47' W 092°11'0 0.0
2017-Apr-17 15:31N 29°47' W 092°11'0 0.0
2017-Apr-17 15:00N 29°47' W 092°11'0 0.0
2017-Apr-17 14:30N 29°47' W 092°11'0 0.0
2017-Apr-17 13:31N 29°47' W 092°11'0 0.0
2017-Apr-17 13:00N 29°47' W 092°11'0 0.0
2017-Apr-17 12:31N 29°47' W 092°11'0 0.0
2017-Apr-17 12:01N 29°47' W 092°11'0 0.0
2017-Apr-17 11:30N 29°47' W 092°11'0 0.0
2017-Apr-17 11:00N 29°47' W 092°11'0 0.0
2017-Apr-17 10:31N 29°47' W 092°11'0 0.0
2017-Apr-17 10:01N 29°47' W 092°11'0 0.0
2017-Apr-17 09:31N 29°47' W 092°11'0 0.0
2017-Apr-17 09:00N 29°47' W 092°11'0 0.0
2017-Apr-17 08:31N 29°47' W 092°11'0 0.0
2017-Apr-17 08:00N 29°47' W 092°11'0 0.0
2017-Apr-17 07:31N 29°47' W 092°11'0 0.0
2017-Apr-17 07:01N 29°47' W 092°11'0 0.0
2017-Apr-17 06:30N 29°47' W 092°11'0 0.0
2017-Apr-17 06:01N 29°47' W 092°11'0 0.0
2017-Apr-16 18:18N 29°47' W 092°11'1 3.1
2017-Apr-16 18:00N 29°46' W 092°11'5 9.7
2017-Apr-16 17:30N 29°42' W 092°15'510.1
2017-Apr-16 17:00N 29°37' W 092°16'  

Dump ship's entire track history